createdAt,value
2019-03-18T00:01:53.919Z,1.10
2019-03-18T00:04:23.328Z,1.27
2019-03-18T00:06:52.692Z,1.00
2019-03-18T00:09:22.076Z,1.30
2019-03-18T00:11:51.436Z,1.27
2019-03-18T00:14:20.824Z,0.97
2019-03-18T00:16:50.197Z,0.77
2019-03-18T00:19:19.580Z,1.13
2019-03-18T00:21:48.941Z,1.07
2019-03-18T00:24:18.325Z,1.10
2019-03-18T00:26:47.688Z,1.00
2019-03-18T00:29:17.081Z,0.77
2019-03-18T00:31:46.444Z,0.80
2019-03-18T00:34:15.825Z,1.10
2019-03-18T00:36:45.184Z,0.97
2019-03-18T00:39:14.569Z,0.90
2019-03-18T00:41:43.919Z,1.23
2019-03-18T00:44:13.303Z,1.50
2019-03-18T00:46:42.651Z,1.40
2019-03-18T00:49:12.060Z,1.20
2019-03-18T00:51:41.411Z,1.50
2019-03-18T00:54:10.718Z,2.10
2019-03-18T00:56:40.079Z,1.20
2019-03-18T00:59:09.462Z,1.20
2019-03-18T01:01:38.991Z,1.17
2019-03-18T01:04:08.457Z,1.17
2019-03-18T01:06:37.823Z,1.70
2019-03-18T01:09:07.584Z,1.10
2019-03-18T01:11:36.951Z,1.10
2019-03-18T01:14:06.407Z,1.03
2019-03-18T01:16:35.761Z,1.53
2019-03-18T01:19:05.159Z,1.17
2019-03-18T01:21:34.519Z,0.90
2019-03-18T01:24:03.922Z,1.13
2019-03-18T01:26:33.277Z,1.30
2019-03-18T01:29:02.593Z,1.10
2019-03-18T01:31:31.963Z,1.07
2019-03-18T01:34:01.356Z,1.33
2019-03-18T01:36:30.715Z,2.00
2019-03-18T01:39:00.142Z,2.15
2019-03-18T01:41:29.504Z,1.60
2019-03-18T01:43:58.883Z,1.77
2019-03-18T01:46:28.247Z,1.60
2019-03-18T01:48:57.632Z,2.30
2019-03-18T01:51:26.992Z,1.53
2019-03-18T01:53:56.427Z,1.57
2019-03-18T01:56:25.712Z,2.33
2019-03-18T01:58:55.101Z,2.67
2019-03-18T02:01:24.464Z,2.07
2019-03-18T02:03:53.863Z,1.80
2019-03-18T02:06:23.236Z,2.50
2019-03-18T02:08:52.612Z,3.17
2019-03-18T02:11:22.008Z,2.80
2019-03-18T02:13:51.444Z,2.27
2019-03-18T02:16:20.807Z,2.50
2019-03-18T02:18:50.191Z,2.97
2019-03-18T02:21:19.560Z,2.33
2019-03-18T02:23:48.872Z,2.83
2019-03-18T02:26:18.239Z,2.43
2019-03-18T02:28:47.617Z,2.03
2019-03-18T02:31:16.969Z,2.27
2019-03-18T02:33:46.380Z,2.67
2019-03-18T02:36:15.776Z,2.90
2019-03-18T02:38:45.141Z,3.30
2019-03-18T02:41:14.558Z,3.30
2019-03-18T02:43:43.933Z,3.23
2019-03-18T02:46:13.288Z,3.40
2019-03-18T02:48:42.673Z,3.80
2019-03-18T02:51:12.086Z,4.37
2019-03-18T02:53:41.414Z,4.50
2019-03-18T02:56:10.773Z,3.07
2019-03-18T02:58:40.160Z,4.07
2019-03-18T03:01:09.515Z,3.70
2019-03-18T03:03:38.931Z,4.00
2019-03-18T03:06:08.289Z,3.93
2019-03-18T03:08:37.648Z,4.13
2019-03-18T03:11:07.045Z,3.90
2019-03-18T03:13:36.414Z,3.97
2019-03-18T03:16:05.805Z,4.43
2019-03-18T03:18:35.156Z,5.00
2019-03-18T03:21:04.533Z,4.20
2019-03-18T03:23:33.821Z,4.37
2019-03-18T03:26:03.218Z,4.30
2019-03-18T03:28:32.572Z,4.57
2019-03-18T03:31:01.957Z,4.20
2019-03-18T03:33:31.322Z,4.30
2019-03-18T03:36:00.701Z,4.43
2019-03-18T03:38:30.062Z,4.93
2019-03-18T03:40:59.757Z,4.33
2019-03-18T03:43:29.149Z,4.63
2019-03-18T03:45:58.496Z,4.33
2019-03-18T03:48:27.859Z,4.53
2019-03-18T03:50:57.235Z,4.40
2019-03-18T03:53:30.600Z,6.43
2019-03-18T03:55:57.746Z,5.13
2019-03-18T03:58:27.093Z,6.27
2019-03-18T04:00:56.576Z,5.80
2019-03-18T04:03:37.619Z,4.90
2019-03-18T04:05:57.003Z,6.10
2019-03-18T04:08:26.560Z,5.03
2019-03-18T04:10:55.946Z,4.87
2019-03-18T04:13:25.342Z,4.97
2019-03-18T04:15:54.724Z,5.33
2019-03-18T04:18:24.091Z,7.90
2019-03-18T04:20:53.487Z,14.63
2019-03-18T04:23:22.771Z,5.80
2019-03-18T04:25:52.352Z,6.13
2019-03-18T04:28:21.712Z,5.40
2019-03-18T04:30:51.096Z,5.50
2019-03-18T04:33:20.469Z,5.63
2019-03-18T04:35:49.853Z,5.20
2019-03-18T04:38:19.209Z,6.30
2019-03-18T04:40:48.601Z,5.13
2019-03-18T04:43:17.952Z,5.57
2019-03-18T04:45:47.345Z,5.73
2019-03-18T04:48:16.708Z,5.83
2019-03-18T04:50:46.095Z,4.40
2019-03-18T04:53:15.499Z,4.33
2019-03-18T04:55:44.883Z,4.13
2019-03-18T04:58:14.212Z,5.10
2019-03-18T05:00:43.554Z,5.80
2019-03-18T05:03:12.907Z,4.83
2019-03-18T05:05:42.175Z,4.50
2019-03-18T05:08:11.495Z,4.63
2019-03-18T05:10:40.837Z,5.80
2019-03-18T05:13:10.163Z,5.33
2019-03-18T05:15:39.506Z,4.83
2019-03-18T05:18:08.835Z,5.67
2019-03-18T05:20:38.184Z,4.97
2019-03-18T05:23:07.499Z,5.00
2019-03-18T05:25:36.846Z,5.40
2019-03-18T05:28:06.182Z,5.20
2019-03-18T05:30:35.519Z,5.80
2019-03-18T05:33:04.830Z,5.20
2019-03-18T05:35:34.174Z,4.43
2019-03-18T05:38:03.495Z,6.03
2019-03-18T05:40:32.867Z,5.20
2019-03-18T05:43:02.247Z,6.30
2019-03-18T05:45:31.595Z,5.00
2019-03-18T05:48:00.906Z,5.67
2019-03-18T05:50:30.291Z,5.43
2019-03-18T05:52:59.595Z,5.60
2019-03-18T05:55:28.942Z,5.00
2019-03-18T05:57:58.259Z,5.30
2019-03-18T06:00:27.626Z,4.67
2019-03-18T06:02:56.958Z,4.70
2019-03-18T06:05:26.307Z,4.97
2019-03-18T06:07:55.628Z,4.03
2019-03-18T06:10:24.950Z,4.40
2019-03-18T06:12:54.291Z,4.30
2019-03-18T06:15:23.604Z,4.50
2019-03-18T06:17:53.188Z,4.83
2019-03-18T06:20:22.575Z,4.27
2019-03-18T06:22:51.915Z,4.13
2019-03-18T06:25:21.296Z,4.77
2019-03-18T06:27:50.638Z,5.07
2019-03-18T06:30:19.955Z,4.80
2019-03-18T06:32:49.300Z,4.70
2019-03-18T06:35:20.471Z,5.77
2019-03-18T06:37:49.615Z,6.40
2019-03-18T06:40:18.922Z,5.30
2019-03-18T06:42:48.270Z,5.50
2019-03-18T06:45:17.579Z,5.13
2019-03-18T06:47:46.923Z,6.47
2019-03-18T06:50:16.249Z,5.50
2019-03-18T06:52:45.596Z,7.60
2019-03-18T06:55:14.927Z,6.20
2019-03-18T06:57:44.297Z,5.70
2019-03-18T07:00:13.626Z,5.40
2019-03-18T07:02:43.003Z,6.10
2019-03-18T07:05:12.316Z,5.73
2019-03-18T07:07:41.662Z,5.80
2019-03-18T07:10:11.020Z,4.80
2019-03-18T07:12:40.363Z,4.70
2019-03-18T07:15:09.807Z,4.40
2019-03-18T07:17:39.068Z,4.80
2019-03-18T07:20:09.137Z,5.80
2019-03-18T07:22:38.406Z,4.00
2019-03-18T07:25:07.768Z,4.17
2019-03-18T07:27:37.118Z,4.30
2019-03-18T07:30:06.702Z,3.90
2019-03-18T07:32:36.039Z,3.43
2019-03-18T07:35:05.651Z,4.60
2019-03-18T07:37:35.016Z,4.10
2019-03-18T07:40:04.379Z,3.23
2019-03-18T07:42:33.652Z,3.43
2019-03-18T07:45:02.980Z,4.50
2019-03-18T07:47:32.319Z,3.63
2019-03-18T07:50:01.647Z,4.00
2019-03-18T07:52:30.988Z,3.93
2019-03-18T07:55:00.323Z,3.37
2019-03-18T07:57:32.537Z,4.53
2019-03-18T08:00:00.640Z,5.03
2019-03-18T08:02:29.983Z,3.17
2019-03-18T08:04:59.331Z,4.80
2019-03-18T08:07:28.686Z,3.80
2019-03-18T08:09:58.003Z,4.50
2019-03-18T08:12:27.343Z,4.00
2019-03-18T08:14:56.692Z,4.27
2019-03-18T08:17:25.934Z,4.40
2019-03-18T08:19:55.263Z,4.30
2019-03-18T08:22:24.597Z,4.50
2019-03-18T08:24:53.915Z,4.90
2019-03-18T08:27:23.267Z,4.80
2019-03-18T08:29:52.651Z,4.40
2019-03-18T08:32:22.002Z,5.40
2019-03-18T08:34:51.327Z,6.40
2019-03-18T08:37:20.667Z,4.30
2019-03-18T08:39:49.991Z,4.60
2019-03-18T08:42:19.343Z,4.20
2019-03-18T08:44:48.667Z,4.37
2019-03-18T08:47:18.024Z,4.97
2019-03-18T08:49:47.334Z,5.00
2019-03-18T08:52:16.670Z,4.17
2019-03-18T08:54:46.023Z,3.73
2019-03-18T08:57:15.338Z,4.90
2019-03-18T08:59:44.671Z,4.30
2019-03-18T09:02:14.032Z,4.53
2019-03-18T09:04:43.380Z,4.90
2019-03-18T09:07:12.734Z,5.60
2019-03-18T09:09:42.048Z,5.63
2019-03-18T09:12:11.404Z,5.43
2019-03-18T09:14:40.719Z,5.30
2019-03-18T09:17:10.051Z,6.00
2019-03-18T09:19:39.403Z,5.03
2019-03-18T09:22:08.727Z,4.77
2019-03-18T09:24:38.063Z,4.80
2019-03-18T09:27:07.391Z,5.50
2019-03-18T09:29:36.731Z,4.40
2019-03-18T09:32:06.093Z,5.20
2019-03-18T09:34:35.437Z,4.60
2019-03-18T09:37:04.755Z,4.90
2019-03-18T09:39:34.103Z,4.53
2019-03-18T09:42:03.439Z,4.57
2019-03-18T09:44:32.787Z,4.07
2019-03-18T09:47:02.115Z,5.60
2019-03-18T09:49:31.463Z,6.40
2019-03-18T09:52:00.785Z,4.80
2019-03-18T09:54:30.121Z,4.30
2019-03-18T09:56:59.431Z,5.50
2019-03-18T09:59:28.807Z,3.60
2019-03-18T10:01:58.118Z,4.60
2019-03-18T10:04:27.499Z,3.10
2019-03-18T10:06:56.815Z,4.10
2019-03-18T10:09:26.159Z,3.40
2019-03-18T10:11:55.473Z,2.83
2019-03-18T10:14:24.822Z,3.30
2019-03-18T10:16:54.135Z,3.10
2019-03-18T10:19:32.924Z,2.70
2019-03-18T10:21:54.445Z,3.00
2019-03-18T10:24:23.783Z,3.37
2019-03-18T10:26:53.163Z,2.90
2019-03-18T10:29:22.581Z,3.03
2019-03-18T10:31:51.845Z,3.20
2019-03-18T10:34:21.179Z,3.30
2019-03-18T10:36:50.492Z,2.53
2019-03-18T10:39:19.948Z,3.20
2019-03-18T10:41:49.333Z,3.90
2019-03-18T10:44:18.689Z,2.77
2019-03-18T10:46:48.003Z,3.20
2019-03-18T10:49:17.319Z,2.50
2019-03-18T10:51:48.275Z,3.13
2019-03-18T10:54:29.974Z,2.70
2019-03-18T10:56:48.785Z,2.83
2019-03-18T10:59:18.099Z,3.07
2019-03-18T11:01:47.373Z,2.20
2019-03-18T11:04:17.592Z,2.37
2019-03-18T11:06:46.939Z,2.83
2019-03-18T11:09:16.259Z,3.03
2019-03-18T11:11:45.608Z,2.47
2019-03-18T11:14:14.923Z,2.67
2019-03-18T11:16:44.273Z,3.03
2019-03-18T11:19:13.590Z,2.30
2019-03-18T11:21:42.949Z,2.10
2019-03-18T11:24:12.265Z,1.93
2019-03-18T11:26:41.611Z,2.17
2019-03-18T11:29:10.927Z,2.33
2019-03-18T11:31:40.275Z,1.60
2019-03-18T11:34:09.596Z,2.43
2019-03-18T11:36:38.931Z,2.20
2019-03-18T11:39:09.158Z,2.43
2019-03-18T11:41:38.565Z,3.73
2019-03-18T11:44:07.826Z,3.40
2019-03-18T11:46:37.182Z,2.50
2019-03-18T11:49:06.498Z,3.30
2019-03-18T11:51:35.838Z,2.27
2019-03-18T11:54:05.295Z,1.90
2019-03-18T11:56:34.648Z,1.57
2019-03-18T11:59:04.039Z,2.50
2019-03-18T12:01:33.382Z,1.60
2019-03-18T12:04:02.710Z,1.70
2019-03-18T12:06:32.056Z,1.70
2019-03-18T12:09:01.387Z,1.70
2019-03-18T12:11:30.719Z,1.47
2019-03-18T12:14:00.044Z,1.60
2019-03-18T12:16:29.392Z,1.80
2019-03-18T12:18:58.630Z,1.17
2019-03-18T12:21:27.978Z,1.47
2019-03-18T12:23:57.295Z,1.40
2019-03-18T12:26:26.612Z,1.00
2019-03-18T12:28:55.963Z,1.10
2019-03-18T12:31:25.287Z,1.60
2019-03-18T12:33:57.297Z,1.20
2019-03-18T12:36:25.503Z,1.30
2019-03-18T12:38:54.843Z,2.37
2019-03-18T12:41:24.219Z,1.70
2019-03-18T12:43:53.545Z,1.80
2019-03-18T12:46:22.874Z,0.97
2019-03-18T12:48:52.199Z,1.60
2019-03-18T12:51:21.532Z,1.30
2019-03-18T12:53:50.960Z,2.00
2019-03-18T12:56:20.328Z,2.13
2019-03-18T12:58:49.671Z,1.83
2019-03-18T13:01:19.001Z,1.40
2019-03-18T13:03:48.408Z,1.27
2019-03-18T13:06:17.727Z,1.23
2019-03-18T13:08:47.076Z,1.40
2019-03-18T13:11:16.383Z,1.20
2019-03-18T13:13:45.739Z,1.10
2019-03-18T13:16:18.062Z,1.10
2019-03-18T13:18:46.027Z,1.17
2019-03-18T13:21:15.343Z,3.07
2019-03-18T13:23:44.732Z,1.30
2019-03-18T13:26:14.007Z,2.20
2019-03-18T13:28:43.343Z,1.70
2019-03-18T13:31:12.685Z,1.60
2019-03-18T13:33:42.015Z,2.00
2019-03-18T13:36:11.344Z,1.60
2019-03-18T13:38:40.691Z,4.37
2019-03-18T13:41:09.999Z,2.27
2019-03-18T13:43:39.396Z,2.10
2019-03-18T13:46:08.708Z,1.43
2019-03-18T13:48:38.064Z,1.57
2019-03-18T13:51:20.077Z,1.90
2019-03-18T13:53:38.353Z,1.40
2019-03-18T13:56:07.700Z,1.40
2019-03-18T13:58:37.047Z,1.33
2019-03-18T14:01:06.391Z,2.80
2019-03-18T14:03:35.723Z,1.67
2019-03-18T14:06:05.091Z,1.30
2019-03-18T14:08:34.403Z,1.40
2019-03-18T14:11:03.739Z,1.50
2019-03-18T14:13:33.063Z,1.30
2019-03-18T14:16:02.407Z,1.50
2019-03-18T14:18:31.723Z,1.40
2019-03-18T14:21:01.057Z,1.23
2019-03-18T14:23:30.379Z,1.23
2019-03-18T14:25:59.730Z,1.20
2019-03-18T14:28:29.050Z,1.33
2019-03-18T14:30:58.395Z,1.33
2019-03-18T14:33:27.725Z,1.07
2019-03-18T14:35:57.124Z,1.33
2019-03-18T14:38:26.384Z,1.40
2019-03-18T14:40:55.714Z,1.13
2019-03-18T14:43:25.049Z,1.30
2019-03-18T14:45:54.392Z,1.23
2019-03-18T14:48:23.732Z,1.67
2019-03-18T14:50:53.075Z,1.10
2019-03-18T14:53:22.405Z,0.87
2019-03-18T14:55:51.776Z,1.10
2019-03-18T14:58:21.084Z,1.13
2019-03-18T15:00:50.431Z,1.50
2019-03-18T15:03:19.749Z,1.00
2019-03-18T15:05:49.184Z,1.23
2019-03-18T15:08:18.512Z,0.80
2019-03-18T15:10:47.833Z,0.87
2019-03-18T15:13:17.188Z,1.00
2019-03-18T15:15:46.500Z,0.70
2019-03-18T15:18:15.834Z,0.77
2019-03-18T15:20:45.147Z,0.67
2019-03-18T15:23:15.619Z,1.30
2019-03-18T15:25:44.947Z,0.83
2019-03-18T15:28:14.287Z,1.13
2019-03-18T15:30:43.603Z,0.83
2019-03-18T15:33:12.955Z,0.93
2019-03-18T15:35:42.267Z,1.30
2019-03-18T15:38:11.606Z,1.10
2019-03-18T15:40:40.932Z,1.67
2019-03-18T15:43:10.268Z,1.40
2019-03-18T15:45:39.593Z,1.17
2019-03-18T15:48:08.931Z,1.90
2019-03-18T15:50:38.255Z,2.40
2019-03-18T15:53:07.596Z,6.37
2019-03-18T15:55:36.845Z,3.17
2019-03-18T15:58:06.276Z,1.37
2019-03-18T16:00:35.648Z,1.00
2019-03-18T16:03:04.942Z,1.40
2019-03-18T16:05:34.287Z,1.00
2019-03-18T16:08:03.621Z,1.30
2019-03-18T16:10:32.940Z,1.20
2019-03-18T16:13:02.271Z,0.80
2019-03-18T16:15:31.601Z,1.00
2019-03-18T16:18:01.020Z,1.13
2019-03-18T16:20:30.344Z,1.07
2019-03-18T16:22:59.672Z,0.70
2019-03-18T16:25:29.010Z,0.73
2019-03-18T16:27:58.318Z,1.00
2019-03-18T16:30:27.672Z,1.30
2019-03-18T16:32:56.977Z,1.00
2019-03-18T16:35:26.392Z,1.27
2019-03-18T16:37:55.758Z,0.80
2019-03-18T16:40:25.115Z,1.17
2019-03-18T16:42:54.504Z,1.00
2019-03-18T16:45:23.842Z,1.30
2019-03-18T16:47:53.165Z,1.60
2019-03-18T16:50:22.535Z,1.87
2019-03-18T16:52:51.843Z,1.70
2019-03-18T16:55:21.216Z,2.70
2019-03-18T16:57:50.553Z,2.50
2019-03-18T17:00:20.100Z,3.23
2019-03-18T17:02:49.412Z,2.90
2019-03-18T17:05:18.832Z,2.57
2019-03-18T17:07:48.163Z,3.10
2019-03-18T17:10:17.515Z,3.33
2019-03-18T17:12:46.826Z,4.97
2019-03-18T17:15:16.171Z,3.93
2019-03-18T17:17:45.487Z,1.87
2019-03-18T17:20:14.853Z,2.00
2019-03-18T17:22:49.384Z,1.10
2019-03-18T17:25:16.699Z,1.40
2019-03-18T17:27:46.007Z,2.10
2019-03-18T17:30:16.872Z,13.60
2019-03-18T17:32:46.293Z,4.13
2019-03-18T17:35:15.686Z,1.37
2019-03-18T17:37:45.003Z,4.20
2019-03-18T17:40:14.423Z,2.03
2019-03-18T17:42:43.776Z,1.33
2019-03-18T17:45:13.856Z,1.97
2019-03-18T17:47:43.209Z,1.40
2019-03-18T17:50:14.497Z,1.60
2019-03-18T17:52:43.879Z,1.17
2019-03-18T17:55:13.423Z,1.30
2019-03-18T17:57:42.759Z,1.30
2019-03-18T18:00:15.006Z,1.90
2019-03-18T18:02:44.347Z,1.90
2019-03-18T18:05:13.800Z,1.77
2019-03-18T18:07:43.190Z,1.90
2019-03-18T18:10:12.532Z,1.30
2019-03-18T18:12:42.244Z,1.27
2019-03-18T18:15:11.560Z,1.30
2019-03-18T18:17:40.923Z,1.33
2019-03-18T18:20:10.275Z,1.60
2019-03-18T18:22:41.200Z,1.33
2019-03-18T18:25:10.791Z,1.17
2019-03-18T18:27:40.142Z,1.20
2019-03-18T18:30:09.696Z,0.97
2019-03-18T18:32:39.043Z,0.83
2019-03-18T18:35:09.321Z,1.63
2019-03-18T18:37:38.671Z,1.37
2019-03-18T18:40:09.443Z,1.70
2019-03-18T18:42:38.807Z,3.03
2019-03-18T18:45:08.387Z,2.67
2019-03-18T18:47:37.732Z,1.80
2019-03-18T18:50:07.811Z,1.53
2019-03-18T18:52:37.152Z,1.30
2019-03-18T18:55:06.647Z,1.90
2019-03-18T18:57:35.987Z,1.43
2019-03-18T19:00:06.212Z,1.30
2019-03-18T19:02:35.628Z,1.30
2019-03-18T19:05:05.511Z,1.30
2019-03-18T19:07:34.832Z,1.20
2019-03-18T19:10:04.844Z,1.10
2019-03-18T19:12:34.159Z,1.67
2019-03-18T19:15:03.511Z,1.80
2019-03-18T19:17:32.833Z,1.73
2019-03-18T19:20:02.171Z,1.97
2019-03-18T19:22:31.494Z,2.03
2019-03-18T19:25:00.837Z,1.90
2019-03-18T19:27:30.159Z,1.67
2019-03-18T19:29:59.506Z,1.50
2019-03-18T19:32:28.827Z,1.13
2019-03-18T19:34:58.171Z,2.40
2019-03-18T19:37:27.524Z,3.50
2019-03-18T19:39:56.866Z,4.23
2019-03-18T19:42:26.187Z,4.23
2019-03-18T19:44:55.527Z,2.50
2019-03-18T19:47:24.850Z,2.50
2019-03-18T19:49:54.249Z,1.67
2019-03-18T19:52:23.564Z,1.30
2019-03-18T19:54:52.844Z,1.93
2019-03-18T19:57:22.175Z,2.00
2019-03-18T19:59:51.527Z,2.10
2019-03-18T20:02:20.843Z,1.70
2019-03-18T20:04:50.221Z,2.50
2019-03-18T20:07:19.532Z,2.20
2019-03-18T20:09:48.868Z,2.60
2019-03-18T20:12:18.255Z,2.17
2019-03-18T20:14:47.638Z,2.40
2019-03-18T20:17:16.970Z,2.57
2019-03-18T20:19:46.321Z,2.40
2019-03-18T20:22:15.656Z,2.23
2019-03-18T20:24:45.029Z,2.93
2019-03-18T20:27:14.363Z,2.67
2019-03-18T20:29:43.709Z,2.73
2019-03-18T20:32:13.078Z,2.83
2019-03-18T20:34:42.403Z,2.37
2019-03-18T20:37:11.719Z,3.60
2019-03-18T20:39:41.077Z,3.10
2019-03-18T20:42:10.416Z,2.47
2019-03-18T20:44:39.736Z,2.57
2019-03-18T20:47:09.088Z,2.93
2019-03-18T20:49:38.455Z,2.40
2019-03-18T20:52:16.368Z,3.67
2019-03-18T20:54:38.766Z,2.57
2019-03-18T20:57:08.095Z,2.47
2019-03-18T20:59:37.462Z,3.30
2019-03-18T21:02:06.793Z,5.40
2019-03-18T21:04:36.204Z,10.20
2019-03-18T21:07:05.531Z,8.67
2019-03-18T21:09:34.901Z,9.87
2019-03-18T21:12:04.293Z,5.00
2019-03-18T21:14:33.604Z,3.17
2019-03-18T21:17:02.946Z,3.50
2019-03-18T21:19:32.262Z,2.80
2019-03-18T21:22:01.598Z,3.17
2019-03-18T21:24:30.921Z,2.50
2019-03-18T21:27:00.264Z,3.40
2019-03-18T21:29:29.628Z,3.08
2019-03-18T21:31:58.972Z,3.00
2019-03-18T21:34:28.307Z,4.87
2019-03-18T21:36:57.647Z,2.47
2019-03-18T21:39:26.984Z,2.35
2019-03-18T21:41:56.344Z,2.70
2019-03-18T21:44:25.660Z,3.10
2019-03-18T21:46:55.032Z,4.23
2019-03-18T21:49:24.358Z,4.00
2019-03-18T21:51:53.704Z,3.07
2019-03-18T21:54:33.465Z,3.90
2019-03-18T21:56:54.043Z,4.15
2019-03-18T21:59:23.362Z,5.12
2019-03-18T22:01:52.738Z,6.08
2019-03-18T22:04:22.096Z,5.85
2019-03-18T22:06:51.459Z,5.78
2019-03-18T22:09:20.786Z,4.53
2019-03-18T22:11:50.152Z,4.12
2019-03-18T22:14:19.480Z,4.20
2019-03-18T22:16:48.849Z,3.70
2019-03-18T22:19:18.181Z,3.35
2019-03-18T22:21:47.523Z,3.70
2019-03-18T22:24:16.934Z,4.17
2019-03-18T22:26:46.281Z,3.42
2019-03-18T22:29:15.619Z,2.70
2019-03-18T22:31:44.996Z,3.45
2019-03-18T22:34:14.347Z,2.90
2019-03-18T22:36:43.675Z,3.62
2019-03-18T22:39:13.087Z,3.35
2019-03-18T22:41:42.415Z,3.58
2019-03-18T22:44:11.763Z,2.50
2019-03-18T22:46:41.095Z,3.50
2019-03-18T22:49:10.487Z,3.90
2019-03-18T22:51:39.778Z,4.15
2019-03-18T22:54:09.131Z,4.55
2019-03-18T22:56:38.471Z,3.50
2019-03-18T22:59:07.834Z,4.45
2019-03-18T23:01:37.159Z,4.10
2019-03-18T23:04:06.507Z,4.20
2019-03-18T23:06:35.879Z,3.60
2019-03-18T23:09:06.685Z,4.17
2019-03-18T23:11:36.011Z,4.83
2019-03-18T23:14:05.283Z,4.47
2019-03-18T23:16:34.635Z,3.90
2019-03-18T23:19:03.985Z,3.80
2019-03-18T23:21:33.312Z,3.87
2019-03-18T23:24:02.721Z,4.58
2019-03-18T23:26:32.050Z,3.83
2019-03-18T23:29:01.406Z,3.58
2019-03-18T23:31:30.742Z,3.62
2019-03-18T23:34:00.099Z,3.10
2019-03-18T23:36:29.423Z,3.77
2019-03-18T23:38:58.775Z,4.00
2019-03-18T23:41:28.098Z,3.37
2019-03-18T23:43:57.455Z,3.02
2019-03-18T23:46:26.799Z,3.12
2019-03-18T23:48:56.151Z,2.72
2019-03-18T23:51:25.431Z,3.55
2019-03-18T23:53:54.804Z,2.37
2019-03-18T23:56:24.159Z,2.67
2019-03-18T23:58:53.470Z,2.55
